Time;durP1;ratioP1;P1;durP2;ratioP2;P2;SDS_P1;SDS_P2;PMS_P1;PMS_P2;Temp;Humidity;BMP_temperature;BMP_pressure;BME280_temperature;BME280_humidity;BME280_pressure;Samples;Min_cycle;Max_cycle;Signal;HPM_P1;HPM_P2
2021/12/13 00:01:45;;;;;;;3.05;1.83;;;;;;;;;;5059030;28;20043;-86
2021/12/13 00:04:10;;;;;;;2.72;1.50;;;;;;;;;;5058369;28;20120;-86
2021/12/13 00:06:35;;;;;;;2.30;1.50;;;;;;;;;;5041690;28;20033;-86
2021/12/13 00:09:01;;;;;;;3.15;1.80;;;;;;;;;;5058385;28;20501;-86
2021/12/13 00:11:26;;;;;;;2.38;1.40;;;;;;;;;;5058602;28;20488;-87
2021/12/13 00:13:51;;;;;;;2.88;1.70;;;;;;;;;;5075880;28;20040;-87
2021/12/13 00:16:17;;;;;;;3.05;1.60;;;;;;;;;;5060016;28;20091;-87
2021/12/13 00:18:42;;;;;;;2.20;1.35;;;;;;;;;;5058175;28;20033;-86
2021/12/13 00:21:08;;;;;;;2.00;1.30;;;;;;;;;;5059410;28;20508;-86
2021/12/13 00:23:33;;;;;;;3.20;1.50;;;;;;;;;;5058587;28;20103;-86
2021/12/13 00:25:58;;;;;;;2.72;1.50;;;;;;;;;;5059497;28;20534;-88
2021/12/13 00:28:24;;;;;;;2.22;1.50;;;;;;;;;;5059124;28;20064;-88
2021/12/13 00:30:49;;;;;;;2.85;1.75;;;;;;;;;;5059055;28;20040;-88
2021/12/13 00:33:14;;;;;;;2.95;1.95;;;;;;;;;;5059146;28;20039;-87
2021/12/13 00:35:40;;;;;;;3.70;2.05;;;;;;;;;;5059776;28;20432;-87
2021/12/13 00:38:05;;;;;;;2.45;1.70;;;;;;;;;;5058258;28;20477;-87
2021/12/13 00:40:30;;;;;;;3.58;1.85;;;;;;;;;;5059335;28;20028;-87
2021/12/13 00:42:56;;;;;;;3.10;2.00;;;;;;;;;;5059649;28;20037;-87
2021/12/13 00:45:21;;;;;;;2.85;1.73;;;;;;;;;;5058339;28;20082;-87
2021/12/13 00:47:46;;;;;;;3.20;1.80;;;;;;;;;;5059573;28;20098;-87
2021/12/13 00:50:12;;;;;;;3.15;1.60;;;;;;;;;;5041023;28;20120;-87
2021/12/13 00:52:37;;;;;;;3.28;1.92;;;;;;;;;;5058891;28;20044;-87
2021/12/13 00:55:02;;;;;;;3.38;2.00;;;;;;;;;;5040552;28;20037;-87
2021/12/13 00:57:28;;;;;;;2.33;1.50;;;;;;;;;;5058599;28;20033;-88
2021/12/13 00:59:53;;;;;;;2.30;1.50;;;;;;;;;;5057807;28;20040;-87
2021/12/13 01:02:18;;;;;;;3.45;1.80;;;;;;;;;;5058853;28;20044;-87
2021/12/13 01:04:44;;;;;;;2.75;1.80;;;;;;;;;;5057746;28;20036;-87
2021/12/13 01:07:09;;;;;;;3.35;1.80;;;;;;;;;;5058048;28;20029;-87
2021/12/13 01:09:34;;;;;;;3.00;1.83;;;;;;;;;;5056831;28;20084;-87
2021/12/13 01:12:00;;;;;;;5.30;1.88;;;;;;;;;;5058148;28;20060;-87
2021/12/13 01:14:30;;;;;;;2.83;1.80;;;;;;;;;;5058579;28;20068;-87
2021/12/13 01:17:04;;;;;;;2.85;1.80;;;;;;;;;;5040717;28;20033;-86
2021/12/13 01:19:32;;;;;;;3.90;1.90;;;;;;;;;;5058592;28;20040;-86
2021/12/13 01:21:58;;;;;;;3.08;1.90;;;;;;;;;;5057166;28;20044;-86
2021/12/13 01:27:08;;;;;;;2.75;1.73;;;;;;;;;;5058458;28;20060;-87
2021/12/13 01:29:33;;;;;;;2.90;1.88;;;;;;;;;;5058535;28;20025;-86
2021/12/13 01:31:59;;;;;;;2.25;1.80;;;;;;;;;;5040576;28;20049;-86
2021/12/13 01:34:24;;;;;;;3.15;1.83;;;;;;;;;;5057174;28;20033;-87
2021/12/13 01:36:57;;;;;;;2.42;1.80;;;;;;;;;;5058445;28;20036;-86
2021/12/13 01:39:23;;;;;;;2.55;1.60;;;;;;;;;;5057021;28;20040;-87
2021/12/13 01:41:48;;;;;;;3.10;1.60;;;;;;;;;;5059139;28;20032;-87
2021/12/13 01:44:13;;;;;;;3.22;1.80;;;;;;;;;;5058898;28;20025;-87
2021/12/13 01:46:39;;;;;;;3.13;1.60;;;;;;;;;;5058640;28;20029;-87
2021/12/13 01:49:04;;;;;;;2.50;1.67;;;;;;;;;;5058201;28;20040;-86
2021/12/13 01:51:33;;;;;;;2.70;1.90;;;;;;;;;;5062106;28;20036;-87
2021/12/13 01:53:58;;;;;;;3.72;1.90;;;;;;;;;;5060700;28;20032;-87
2021/12/13 01:56:38;;;;;;;2.50;1.58;;;;;;;;;;5061801;28;20036;-86
2021/12/13 01:59:06;;;;;;;2.92;1.80;;;;;;;;;;5062279;28;20025;-87
2021/12/13 02:01:31;;;;;;;2.75;1.73;;;;;;;;;;5062117;28;20028;-87
2021/12/13 02:03:57;;;;;;;3.60;1.75;;;;;;;;;;5079340;28;20061;-86
2021/12/13 02:06:22;;;;;;;2.47;1.80;;;;;;;;;;5063100;28;20065;-86
2021/12/13 02:08:48;;;;;;;3.47;1.70;;;;;;;;;;5061485;28;20040;-86
2021/12/13 02:11:13;;;;;;;3.15;1.70;;;;;;;;;;5064158;28;20040;-86
2021/12/13 02:13:48;;;;;;;2.42;1.52;;;;;;;;;;5063452;28;20036;-86
2021/12/13 02:18:58;;;;;;;4.00;1.77;;;;;;;;;;5063108;28;20025;-87
2021/12/13 02:21:27;;;;;;;2.85;1.70;;;;;;;;;;5062050;28;20056;-87
2021/12/13 02:23:52;;;;;;;3.15;2.00;;;;;;;;;;5061965;28;20487;-87
2021/12/13 02:26:18;;;;;;;2.70;1.90;;;;;;;;;;5062157;28;20128;-87
2021/12/13 02:28:43;;;;;;;2.40;1.52;;;;;;;;;;5045692;28;20044;-87
2021/12/13 02:31:08;;;;;;;2.58;1.58;;;;;;;;;;5062580;28;20036;-87
2021/12/13 02:33:34;;;;;;;2.63;1.63;;;;;;;;;;5062105;28;20040;-87
2021/12/13 02:35:59;;;;;;;2.38;1.77;;;;;;;;;;5062661;28;20037;-87
2021/12/13 02:38:25;;;;;;;3.08;1.90;;;;;;;;;;5061355;28;20025;-87
2021/12/13 02:40:51;;;;;;;2.95;2.15;;;;;;;;;;5061534;28;20121;-87
2021/12/13 02:43:16;;;;;;;4.32;1.90;;;;;;;;;;5043920;28;20068;-86
2021/12/13 02:45:44;;;;;;;3.05;2.10;;;;;;;;;;5058589;28;20040;-86
2021/12/13 02:48:10;;;;;;;3.65;2.00;;;;;;;;;;5060379;28;20076;-87
2021/12/13 02:50:35;;;;;;;2.97;1.95;;;;;;;;;;5060150;28;20037;-87
2021/12/13 02:53:00;;;;;;;2.65;1.67;;;;;;;;;;5061155;28;20044;-87
2021/12/13 02:55:28;;;;;;;3.13;1.90;;;;;;;;;;5059475;28;20024;-87
2021/12/13 02:57:54;;;;;;;2.30;1.60;;;;;;;;;;5043690;28;20115;-86
2021/12/13 03:00:19;;;;;;;2.28;1.60;;;;;;;;;;5043513;28;20110;-86
2021/12/13 03:02:44;;;;;;;2.58;1.67;;;;;;;;;;5043030;28;20036;-87
2021/12/13 03:05:11;;;;;;;2.80;1.90;;;;;;;;;;5060181;28;20032;-86
2021/12/13 03:07:36;;;;;;;3.05;1.98;;;;;;;;;;5043612;28;20040;-86
2021/12/13 03:10:02;;;;;;;3.00;1.90;;;;;;;;;;5061824;28;20041;-86
2021/12/13 03:12:27;;;;;;;2.95;1.85;;;;;;;;;;5043947;28;20048;-86
2021/12/13 03:14:52;;;;;;;3.63;1.83;;;;;;;;;;5043512;28;20033;-86
2021/12/13 03:17:18;;;;;;;3.47;2.10;;;;;;;;;;5061537;28;20025;-87
2021/12/13 03:19:43;;;;;;;2.70;2.08;;;;;;;;;;5060451;28;20032;-87
2021/12/13 03:22:08;;;;;;;3.20;2.05;;;;;;;;;;5060212;28;20053;-86
2021/12/13 03:24:33;;;;;;;3.20;2.20;;;;;;;;;;5061075;28;20040;-86
2021/12/13 03:26:59;;;;;;;2.85;2.10;;;;;;;;;;5042887;28;20041;-86
2021/12/13 03:29:24;;;;;;;4.45;2.00;;;;;;;;;;5059429;28;20037;-86
2021/12/13 03:31:49;;;;;;;2.88;2.03;;;;;;;;;;5060795;28;20029;-86
2021/12/13 03:34:15;;;;;;;3.10;2.30;;;;;;;;;;5043646;28;20036;-87
2021/12/13 03:36:40;;;;;;;3.33;2.45;;;;;;;;;;5060805;28;20112;-87
2021/12/13 03:39:05;;;;;;;3.72;2.20;;;;;;;;;;5061097;28;20032;-86
2021/12/13 03:41:31;;;;;;;4.32;2.35;;;;;;;;;;5059806;28;20489;-86
2021/12/13 03:43:56;;;;;;;4.88;3.08;;;;;;;;;;5060373;28;20095;-86
2021/12/13 03:46:21;;;;;;;3.63;2.50;;;;;;;;;;5059717;28;20041;-86
2021/12/13 03:48:47;;;;;;;6.35;2.30;;;;;;;;;;5059311;28;20098;-87
2021/12/13 03:51:12;;;;;;;4.22;2.67;;;;;;;;;;5059713;28;20101;-88
2021/12/13 03:53:37;;;;;;;4.95;2.67;;;;;;;;;;5061461;28;20033;-88
2021/12/13 03:56:02;;;;;;;5.28;2.63;;;;;;;;;;5061505;28;20051;-88
2021/12/13 03:58:28;;;;;;;5.55;2.70;;;;;;;;;;5042868;28;20039;-88
2021/12/13 04:00:53;;;;;;;4.30;2.55;;;;;;;;;;5061844;28;20037;-87
2021/12/13 04:03:18;;;;;;;3.63;2.60;;;;;;;;;;5060173;28;20099;-87
2021/12/13 04:05:44;;;;;;;4.72;2.75;;;;;;;;;;5076157;28;20040;-87
2021/12/13 04:08:09;;;;;;;4.25;2.75;;;;;;;;;;5043606;28;20045;-87
2021/12/13 04:10:34;;;;;;;4.85;2.55;;;;;;;;;;5060764;28;20159;-87
2021/12/13 04:13:00;;;;;;;3.42;2.65;;;;;;;;;;5058869;28;20403;-87
2021/12/13 04:15:30;;;;;;;5.10;3.15;;;;;;;;;;5060732;28;20060;-87
2021/12/13 04:18:00;;;;;;;5.35;3.13;;;;;;;;;;5060632;28;20025;-88
2021/12/13 04:20:25;;;;;;;6.03;3.03;;;;;;;;;;5060483;28;20091;-87
2021/12/13 04:22:50;;;;;;;8.60;3.58;;;;;;;;;;5059543;28;20033;-87
2021/12/13 04:25:16;;;;;;;4.55;3.20;;;;;;;;;;5059647;28;20040;-87
2021/12/13 04:27:41;;;;;;;5.15;3.30;;;;;;;;;;5043638;28;20032;-87
2021/12/13 04:30:06;;;;;;;3.70;2.83;;;;;;;;;;5059435;28;20171;-87
2021/12/13 04:32:32;;;;;;;5.40;3.42;;;;;;;;;;5059325;28;20373;-86
2021/12/13 04:34:57;;;;;;;3.70;2.72;;;;;;;;;;5059170;28;20031;-87
2021/12/13 04:37:23;;;;;;;4.95;3.22;;;;;;;;;;5057902;28;20421;-86
2021/12/13 04:39:48;;;;;;;5.60;3.20;;;;;;;;;;5058586;28;20103;-87
2021/12/13 04:42:13;;;;;;;4.50;3.20;;;;;;;;;;5059480;28;20439;-87
2021/12/13 04:44:39;;;;;;;5.47;3.35;;;;;;;;;;5057825;28;20048;-87
2021/12/13 04:47:04;;;;;;;3.92;2.85;;;;;;;;;;5057615;28;20065;-86
2021/12/13 04:49:29;;;;;;;4.07;2.80;;;;;;;;;;5058521;28;20052;-86
2021/12/13 04:51:55;;;;;;;4.38;3.17;;;;;;;;;;5057923;28;20033;-86
2021/12/13 04:54:20;;;;;;;5.32;2.97;;;;;;;;;;5058744;28;20083;-87
2021/12/13 04:56:45;;;;;;;4.07;3.00;;;;;;;;;;5059699;28;20041;-87
2021/12/13 04:59:11;;;;;;;3.80;2.72;;;;;;;;;;5058464;28;20033;-86
2021/12/13 05:01:36;;;;;;;3.90;2.85;;;;;;;;;;5057698;28;20037;-87
2021/12/13 05:04:02;;;;;;;3.65;2.70;;;;;;;;;;5059526;28;20051;-87
2021/12/13 05:06:27;;;;;;;5.05;3.20;;;;;;;;;;5058324;28;20037;-87
2021/12/13 05:08:54;;;;;;;4.22;2.83;;;;;;;;;;5060269;28;20036;-87
2021/12/13 05:11:19;;;;;;;4.60;3.17;;;;;;;;;;5058989;28;20056;-87
2021/12/13 05:13:44;;;;;;;4.45;2.90;;;;;;;;;;5059033;28;20087;-87
2021/12/13 05:16:10;;;;;;;4.65;3.10;;;;;;;;;;5058977;28;20040;-87
2021/12/13 05:18:35;;;;;;;5.03;3.10;;;;;;;;;;5059409;28;20079;-87
2021/12/13 05:21:00;;;;;;;5.15;3.25;;;;;;;;;;5060854;28;20053;-87
2021/12/13 05:23:26;;;;;;;4.03;3.15;;;;;;;;;;5060420;28;20040;-87
2021/12/13 05:25:51;;;;;;;4.25;3.17;;;;;;;;;;5042175;28;20109;-86
2021/12/13 05:28:16;;;;;;;4.40;3.17;;;;;;;;;;5059683;28;20040;-86
2021/12/13 05:30:42;;;;;;;4.18;3.38;;;;;;;;;;5058775;28;20040;-87
2021/12/13 05:33:07;;;;;;;4.47;3.45;;;;;;;;;;5042694;28;20037;-87
2021/12/13 05:35:33;;;;;;;4.47;2.92;;;;;;;;;;5057640;28;20045;-87
2021/12/13 05:37:58;;;;;;;3.97;3.08;;;;;;;;;;5059940;28;20112;-87
2021/12/13 05:40:23;;;;;;;5.75;3.03;;;;;;;;;;5059142;28;20025;-87
2021/12/13 05:42:49;;;;;;;4.72;3.45;;;;;;;;;;5057629;28;20358;-87
2021/12/13 05:45:14;;;;;;;4.88;3.10;;;;;;;;;;5056200;28;20083;-87
2021/12/13 05:47:39;;;;;;;4.40;3.30;;;;;;;;;;5057098;28;20039;-87
2021/12/13 05:50:05;;;;;;;3.83;2.95;;;;;;;;;;5073887;28;20033;-87
2021/12/13 05:52:30;;;;;;;4.82;3.47;;;;;;;;;;5040364;28;20071;-85
2021/12/13 05:54:57;;;;;;;4.50;3.45;;;;;;;;;;5058996;28;20509;-86
2021/12/13 05:57:22;;;;;;;5.95;3.65;;;;;;;;;;5057315;28;20029;-86
2021/12/13 05:59:47;;;;;;;5.78;4.25;;;;;;;;;;5057104;28;20075;-86
2021/12/13 06:02:13;;;;;;;6.03;4.18;;;;;;;;;;5058522;28;20029;-85
2021/12/13 06:04:38;;;;;;;5.65;3.90;;;;;;;;;;5057037;28;20037;-86
2021/12/13 06:07:03;;;;;;;6.25;4.28;;;;;;;;;;5058190;28;20025;-86
2021/12/13 06:09:29;;;;;;;4.95;3.75;;;;;;;;;;5058684;28;20174;-86
2021/12/13 06:11:54;;;;;;;4.72;3.55;;;;;;;;;;5058117;28;20017;-86
2021/12/13 06:14:19;;;;;;;4.57;3.40;;;;;;;;;;5056159;28;20064;-88
2021/12/13 06:16:45;;;;;;;5.88;3.42;;;;;;;;;;5057617;28;20033;-86
2021/12/13 06:19:10;;;;;;;5.47;3.40;;;;;;;;;;5058018;28;20076;-86
2021/12/13 06:21:35;;;;;;;6.63;3.40;;;;;;;;;;5056151;28;20045;-86
2021/12/13 06:24:01;;;;;;;4.72;3.60;;;;;;;;;;5058443;28;20088;-86
2021/12/13 06:26:26;;;;;;;5.32;3.83;;;;;;;;;;5057313;28;20393;-86
2021/12/13 06:28:51;;;;;;;6.20;3.80;;;;;;;;;;5056113;28;20507;-86
2021/12/13 06:31:17;;;;;;;9.23;4.43;;;;;;;;;;5057340;28;20388;-86
2021/12/13 06:33:42;;;;;;;21.40;7.38;;;;;;;;;;5041411;28;20029;-87
2021/12/13 06:36:07;;;;;;;20.20;6.82;;;;;;;;;;5074942;28;20120;-86
2021/12/13 06:38:33;;;;;;;5.82;4.20;;;;;;;;;;5061615;28;20013;-86
2021/12/13 06:40:58;;;;;;;6.05;3.92;;;;;;;;;;5062362;28;20047;-86
2021/12/13 06:43:23;;;;;;;6.50;4.43;;;;;;;;;;5062024;28;20025;-86
2021/12/13 06:45:49;;;;;;;5.85;3.53;;;;;;;;;;5044544;28;20037;-86
2021/12/13 06:48:14;;;;;;;5.15;3.42;;;;;;;;;;5063228;28;20048;-86
2021/12/13 06:50:39;;;;;;;4.15;3.28;;;;;;;;;;5061766;28;20040;-85
2021/12/13 06:53:04;;;;;;;6.07;3.35;;;;;;;;;;5076624;28;20021;-88
2021/12/13 06:55:30;;;;;;;5.18;3.65;;;;;;;;;;5076698;28;20033;-88
2021/12/13 06:58:00;;;;;;;4.35;3.22;;;;;;;;;;5057494;28;20029;-88
2021/12/13 07:00:26;;;;;;;4.88;3.75;;;;;;;;;;5057942;28;20043;-88
2021/12/13 07:02:51;;;;;;;5.47;3.72;;;;;;;;;;5041384;28;20025;-90
2021/12/13 07:05:17;;;;;;;5.43;4.00;;;;;;;;;;5058946;28;20033;-89
2021/12/13 07:07:42;;;;;;;5.57;4.20;;;;;;;;;;5059161;28;20029;-89
2021/12/13 07:10:07;;;;;;;5.40;3.88;;;;;;;;;;5041815;28;20029;-88
2021/12/13 07:12:33;;;;;;;5.65;4.15;;;;;;;;;;5058655;28;20106;-89
2021/12/13 07:14:58;;;;;;;5.78;4.03;;;;;;;;;;5056416;28;20017;-88
2021/12/13 07:17:26;;;;;;;5.82;4.30;;;;;;;;;;5057449;28;20551;-89
2021/12/13 07:19:51;;;;;;;5.32;4.30;;;;;;;;;;5040562;28;20108;-88
2021/12/13 07:22:16;;;;;;;6.15;4.53;;;;;;;;;;5041253;28;20481;-88
2021/12/13 07:24:42;;;;;;;6.32;4.78;;;;;;;;;;5041358;28;20452;-88
2021/12/13 07:27:08;;;;;;;11.98;6.38;;;;;;;;;;5057346;28;20116;-88
2021/12/13 07:29:33;;;;;;;9.32;5.72;;;;;;;;;;5056735;28;20041;-88
2021/12/13 07:31:58;;;;;;;7.30;4.50;;;;;;;;;;5039864;28;20033;-87
2021/12/13 07:34:23;;;;;;;9.73;5.82;;;;;;;;;;5078372;28;20087;-87
2021/12/13 07:36:49;;;;;;;8.50;5.45;;;;;;;;;;5079989;28;20040;-88
2021/12/13 07:39:14;;;;;;;7.57;4.53;;;;;;;;;;5060773;28;20040;-88
2021/12/13 07:41:39;;;;;;;6.53;4.57;;;;;;;;;;5078523;28;20040;-88
2021/12/13 07:44:05;;;;;;;6.63;4.70;;;;;;;;;;5058539;28;20036;-89
2021/12/13 07:46:30;;;;;;;6.82;4.53;;;;;;;;;;5076210;28;20428;-88
2021/12/13 07:48:55;;;;;;;6.85;5.15;;;;;;;;;;5060352;28;20480;-89
2021/12/13 07:51:22;;;;;;;6.20;4.43;;;;;;;;;;5059513;28;20032;-88
2021/12/13 07:53:48;;;;;;;9.23;4.13;;;;;;;;;;5042365;28;20033;-88
2021/12/13 07:56:13;;;;;;;7.80;4.50;;;;;;;;;;5079980;28;20035;-86
2021/12/13 07:58:38;;;;;;;8.30;5.50;;;;;;;;;;5077215;28;20032;-87
2021/12/13 08:01:03;;;;;;;6.97;4.80;;;;;;;;;;5056923;28;20055;-86
2021/12/13 08:03:29;;;;;;;7.47;4.78;;;;;;;;;;5062887;28;20040;-85
2021/12/13 08:05:54;;;;;;;7.10;3.45;;;;;;;;;;5061556;28;20032;-85
2021/12/13 08:08:19;;;;;;;6.25;4.57;;;;;;;;;;5062862;28;20028;-86
2021/12/13 08:10:45;;;;;;;7.22;4.93;;;;;;;;;;5080161;28;20104;-86
2021/12/13 08:13:10;;;;;;;7.88;4.28;;;;;;;;;;5079503;28;20098;-86
2021/12/13 08:15:35;;;;;;;7.07;3.97;;;;;;;;;;5062403;28;20037;-86
2021/12/13 08:18:01;;;;;;;6.82;4.65;;;;;;;;;;5058077;28;20467;-86
2021/12/13 08:20:26;;;;;;;6.53;4.88;;;;;;;;;;5042908;28;20548;-86
2021/12/13 08:22:52;;;;;;;5.60;4.05;;;;;;;;;;5079827;28;20455;-85
2021/12/13 08:25:17;;;;;;;6.40;4.60;;;;;;;;;;5079658;28;20032;-86
2021/12/13 08:27:42;;;;;;;5.78;4.40;;;;;;;;;;5044539;28;20036;-86
2021/12/13 08:30:07;;;;;;;5.35;4.13;;;;;;;;;;5079464;28;20039;-85
2021/12/13 08:32:33;;;;;;;6.85;4.65;;;;;;;;;;5078855;28;20064;-86
2021/12/13 08:34:58;;;;;;;6.82;4.70;;;;;;;;;;5045743;28;20020;-87
2021/12/13 08:37:23;;;;;;;7.32;5.00;;;;;;;;;;5061545;28;20024;-86
2021/12/13 08:39:49;;;;;;;6.75;4.55;;;;;;;;;;5060768;28;20032;-86
2021/12/13 08:42:15;;;;;;;6.68;4.72;;;;;;;;;;5044093;28;20054;-86
2021/12/13 08:44:40;;;;;;;7.68;5.05;;;;;;;;;;5079894;28;20174;-85
2021/12/13 08:47:06;;;;;;;11.07;6.18;;;;;;;;;;5061483;28;20032;-87
2021/12/13 08:49:31;;;;;;;14.38;7.47;;;;;;;;;;5080849;28;20032;-86
2021/12/13 08:51:57;;;;;;;11.95;7.22;;;;;;;;;;5079676;28;20032;-86
2021/12/13 08:54:22;;;;;;;10.02;6.00;;;;;;;;;;5062043;28;20037;-86
2021/12/13 08:56:47;;;;;;;8.85;5.32;;;;;;;;;;5045275;28;20020;-86
2021/12/13 08:59:13;;;;;;;7.03;4.68;;;;;;;;;;5078759;28;20055;-86
2021/12/13 09:01:38;;;;;;;6.57;4.50;;;;;;;;;;5080774;28;20047;-85
2021/12/13 09:04:03;;;;;;;8.40;5.18;;;;;;;;;;5080664;28;20037;-87
2021/12/13 09:06:29;;;;;;;9.73;5.43;;;;;;;;;;5078730;28;20032;-87
2021/12/13 09:08:54;;;;;;;7.10;4.80;;;;;;;;;;5045280;28;20046;-86
2021/12/13 09:11:19;;;;;;;8.38;5.15;;;;;;;;;;5062153;28;20032;-86
2021/12/13 09:13:45;;;;;;;6.55;4.70;;;;;;;;;;5061807;28;20033;-86
2021/12/13 09:16:10;;;;;;;8.77;5.20;;;;;;;;;;5045428;28;20047;-86
2021/12/13 09:18:35;;;;;;;8.13;5.47;;;;;;;;;;5079227;28;20035;-86
2021/12/13 09:21:01;;;;;;;9.40;6.30;;;;;;;;;;5078460;28;20032;-86
2021/12/13 09:23:26;;;;;;;9.07;6.20;;;;;;;;;;5059962;28;20024;-86
2021/12/13 09:25:51;;;;;;;9.02;5.85;;;;;;;;;;5078824;28;20476;-87
2021/12/13 09:28:17;;;;;;;7.05;5.10;;;;;;;;;;5075146;28;20038;-86
2021/12/13 09:30:42;;;;;;;8.30;5.07;;;;;;;;;;5058965;28;20078;-86
2021/12/13 09:33:07;;;;;;;7.00;4.68;;;;;;;;;;5058113;28;20060;-86
2021/12/13 09:35:33;;;;;;;8.80;4.70;;;;;;;;;;5059951;28;20055;-86
2021/12/13 09:37:58;;;;;;;6.57;4.38;;;;;;;;;;5061817;28;20047;-85
2021/12/13 09:40:23;;;;;;;8.18;4.03;;;;;;;;;;5062323;28;20484;-86
2021/12/13 09:42:49;;;;;;;6.13;4.38;;;;;;;;;;5080454;28;20039;-86
2021/12/13 09:45:14;;;;;;;9.80;4.47;;;;;;;;;;5059082;28;20475;-87
2021/12/13 09:47:40;;;;;;;7.03;4.25;;;;;;;;;;5058569;28;20044;-87
2021/12/13 09:50:05;;;;;;;5.85;4.38;;;;;;;;;;5059113;28;20032;-87
2021/12/13 09:52:30;;;;;;;7.60;4.55;;;;;;;;;;5077392;28;20032;-87
2021/12/13 09:54:56;;;;;;;8.52;4.47;;;;;;;;;;5076955;28;20032;-87
2021/12/13 09:57:21;;;;;;;6.65;4.63;;;;;;;;;;5044045;28;20025;-86
2021/12/13 09:59:46;;;;;;;6.38;4.22;;;;;;;;;;5078678;28;20052;-85
2021/12/13 10:02:12;;;;;;;5.70;3.92;;;;;;;;;;5079135;28;20035;-86
2021/12/13 10:04:37;;;;;;;6.72;4.15;;;;;;;;;;5078910;28;20444;-86
2021/12/13 10:07:02;;;;;;;5.10;3.67;;;;;;;;;;5078774;28;20058;-86
2021/12/13 10:09:28;;;;;;;5.00;3.58;;;;;;;;;;5080713;28;20028;-86
2021/12/13 10:11:53;;;;;;;5.50;3.83;;;;;;;;;;5082561;28;20408;-85
2021/12/13 10:14:18;;;;;;;6.05;4.18;;;;;;;;;;5083763;28;20036;-86
2021/12/13 10:16:44;;;;;;;6.90;4.00;;;;;;;;;;5083223;28;20392;-85
2021/12/13 10:19:09;;;;;;;5.30;3.75;;;;;;;;;;5083613;28;20028;-85
2021/12/13 10:21:34;;;;;;;9.05;4.65;;;;;;;;;;5083968;28;20075;-85
2021/12/13 10:24:00;;;;;;;9.05;4.63;;;;;;;;;;5066334;28;20028;-86
2021/12/13 10:26:25;;;;;;;6.93;3.95;;;;;;;;;;5082668;28;20040;-86
2021/12/13 10:28:54;;;;;;;8.63;4.30;;;;;;;;;;5083237;28;20028;-86
2021/12/13 10:31:19;;;;;;;11.50;4.90;;;;;;;;;;5083431;28;20037;-86
2021/12/13 10:33:45;;;;;;;8.50;4.50;;;;;;;;;;5065543;28;20036;-85
2021/12/13 10:36:10;;;;;;;6.75;4.25;;;;;;;;;;5082742;28;20083;-86
2021/12/13 10:38:35;;;;;;;9.55;4.53;;;;;;;;;;5067865;28;20040;-85
2021/12/13 10:41:01;;;;;;;5.53;3.85;;;;;;;;;;5088181;28;20033;-85
2021/12/13 10:43:26;;;;;;;5.82;3.83;;;;;;;;;;5086037;28;20092;-85
2021/12/13 10:45:51;;;;;;;11.10;5.40;;;;;;;;;;5087216;28;20028;-85
2021/12/13 10:48:17;;;;;;;8.38;5.50;;;;;;;;;;5085841;28;20503;-85
2021/12/13 10:50:42;;;;;;;8.20;4.45;;;;;;;;;;5083843;28;20062;-86
2021/12/13 10:53:07;;;;;;;5.00;3.20;;;;;;;;;;5065675;28;20036;-86
2021/12/13 10:55:33;;;;;;;6.85;3.25;;;;;;;;;;5082603;28;20033;-86
2021/12/13 10:57:58;;;;;;;7.43;4.55;;;;;;;;;;5083257;28;20036;-85
2021/12/13 11:00:23;;;;;;;6.20;3.75;;;;;;;;;;5083488;28;20028;-86
2021/12/13 11:02:48;;;;;;;6.15;3.92;;;;;;;;;;5081477;28;20174;-85
2021/12/13 11:05:14;;;;;;;6.10;3.75;;;;;;;;;;5080627;28;20123;-86
2021/12/13 11:07:39;;;;;;;4.82;3.55;;;;;;;;;;5060686;28;20033;-86
2021/12/13 11:10:04;;;;;;;5.78;3.90;;;;;;;;;;5060289;28;20037;-85
2021/12/13 11:12:30;;;;;;;7.72;4.32;;;;;;;;;;5063908;28;20443;-85
2021/12/13 11:14:55;;;;;;;6.03;3.88;;;;;;;;;;5081277;28;20040;-85
2021/12/13 11:17:21;;;;;;;5.07;3.53;;;;;;;;;;5080898;28;20037;-86
2021/12/13 11:19:47;;;;;;;4.70;3.28;;;;;;;;;;5081573;28;20538;-85
2021/12/13 11:22:12;;;;;;;5.93;3.50;;;;;;;;;;5079807;28;20036;-86
2021/12/13 11:24:38;;;;;;;6.32;4.25;;;;;;;;;;5080745;28;20052;-86
2021/12/13 11:27:03;;;;;;;7.80;4.38;;;;;;;;;;5080099;28;20064;-86
2021/12/13 11:29:28;;;;;;;7.30;4.55;;;;;;;;;;5082873;28;20132;-86
2021/12/13 11:31:55;;;;;;;5.63;3.95;;;;;;;;;;5048690;28;20024;-86
2021/12/13 11:34:20;;;;;;;5.93;3.88;;;;;;;;;;5064295;28;20070;-87
2021/12/13 11:36:46;;;;;;;7.63;4.03;;;;;;;;;;5084598;28;20033;-87
2021/12/13 11:39:11;;;;;;;5.72;3.90;;;;;;;;;;5082670;28;20036;-87
2021/12/13 11:41:37;;;;;;;5.72;3.88;;;;;;;;;;5081434;28;20040;-87
2021/12/13 11:44:02;;;;;;;5.25;3.33;;;;;;;;;;5081234;28;20027;-87
2021/12/13 11:46:29;;;;;;;7.90;3.35;;;;;;;;;;5062812;28;20024;-86
2021/12/13 11:48:54;;;;;;;4.65;3.38;;;;;;;;;;5079376;28;20472;-86
2021/12/13 11:51:19;;;;;;;6.15;3.70;;;;;;;;;;5081313;28;20029;-86
2021/12/13 11:53:45;;;;;;;5.38;3.60;;;;;;;;;;5079865;28;20032;-86
2021/12/13 11:56:10;;;;;;;4.78;3.40;;;;;;;;;;5078961;28;20052;-87
2021/12/13 11:58:35;;;;;;;6.43;3.53;;;;;;;;;;5062091;28;20039;-87
2021/12/13 12:01:01;;;;;;;6.60;3.97;;;;;;;;;;5045292;28;20072;-86
2021/12/13 12:03:26;;;;;;;6.88;4.20;;;;;;;;;;5079909;28;20033;-86
2021/12/13 12:05:52;;;;;;;5.15;3.63;;;;;;;;;;5064746;28;20059;-86
2021/12/13 12:08:19;;;;;;;5.97;3.90;;;;;;;;;;5084578;28;20086;-86
2021/12/13 12:10:44;;;;;;;6.13;3.97;;;;;;;;;;5048866;28;20036;-85
2021/12/13 12:13:09;;;;;;;5.22;3.35;;;;;;;;;;5084297;28;20043;-86
2021/12/13 12:15:35;;;;;;;6.18;4.00;;;;;;;;;;5084134;28;20037;-85
2021/12/13 12:18:00;;;;;;;5.28;3.00;;;;;;;;;;5084793;28;20043;-85
2021/12/13 12:20:26;;;;;;;5.00;2.85;;;;;;;;;;5084402;28;20012;-86
2021/12/13 12:22:51;;;;;;;5.03;3.40;;;;;;;;;;5084698;28;20048;-85
2021/12/13 12:25:16;;;;;;;5.10;2.88;;;;;;;;;;5083717;28;20079;-86
2021/12/13 12:27:42;;;;;;;3.53;2.45;;;;;;;;;;5084314;28;20029;-86
2021/12/13 12:30:09;;;;;;;4.75;2.78;;;;;;;;;;5084446;28;20032;-86
2021/12/13 12:32:34;;;;;;;5.28;3.00;;;;;;;;;;5067075;28;20033;-85
2021/12/13 12:34:59;;;;;;;4.85;2.95;;;;;;;;;;5084012;28;20050;-86
2021/12/13 12:37:25;;;;;;;4.28;2.80;;;;;;;;;;5084603;28;20029;-85
2021/12/13 12:39:50;;;;;;;4.88;3.08;;;;;;;;;;5084083;28;20591;-85
2021/12/13 12:42:16;;;;;;;4.28;3.00;;;;;;;;;;5083508;28;20016;-86
2021/12/13 12:44:42;;;;;;;4.68;3.03;;;;;;;;;;5083922;28;20021;-85
2021/12/13 12:47:13;;;;;;;4.50;3.03;;;;;;;;;;5083859;28;20108;-86
2021/12/13 12:49:39;;;;;;;6.78;3.80;;;;;;;;;;5065731;28;20059;-86
2021/12/13 12:52:04;;;;;;;5.00;3.65;;;;;;;;;;5080629;28;20032;-86
2021/12/13 12:54:29;;;;;;;7.78;3.60;;;;;;;;;;5080250;28;20028;-86
2021/12/13 12:56:55;;;;;;;6.60;3.28;;;;;;;;;;5078602;28;20032;-87
2021/12/13 12:59:20;;;;;;;4.70;3.13;;;;;;;;;;5078174;28;20040;-86
2021/12/13 13:01:45;;;;;;;5.20;3.10;;;;;;;;;;5077997;28;20035;-86
2021/12/13 13:04:11;;;;;;;4.53;2.78;;;;;;;;;;5078860;28;20062;-87
2021/12/13 13:06:36;;;;;;;6.25;2.40;;;;;;;;;;5078428;28;20017;-86
2021/12/13 13:09:01;;;;;;;5.30;2.10;;;;;;;;;;5061088;28;20036;-86
2021/12/13 13:11:27;;;;;;;3.30;2.40;;;;;;;;;;5058738;28;20477;-88
2021/12/13 13:13:52;;;;;;;5.07;2.85;;;;;;;;;;5078278;28;20483;-88
2021/12/13 13:16:18;;;;;;;4.18;3.03;;;;;;;;;;5078893;28;20081;-86
2021/12/13 13:18:43;;;;;;;6.85;3.55;;;;;;;;;;5060372;28;20089;-87
2021/12/13 13:21:08;;;;;;;6.00;4.03;;;;;;;;;;5077662;28;20021;-85
2021/12/13 13:23:34;;;;;;;6.60;4.40;;;;;;;;;;5060804;28;20028;-86
2021/12/13 13:25:59;;;;;;;4.80;3.75;;;;;;;;;;5059119;28;20029;-86
2021/12/13 13:28:24;;;;;;;10.95;6.47;;;;;;;;;;5061747;28;20047;-86
2021/12/13 13:30:50;;;;;;;7.57;4.28;;;;;;;;;;5078519;28;20017;-86
2021/12/13 13:33:16;;;;;;;6.25;4.60;;;;;;;;;;5078606;28;20081;-86
2021/12/13 13:35:41;;;;;;;7.18;4.72;;;;;;;;;;5043108;28;20054;-86
2021/12/13 13:38:06;;;;;;;9.65;5.53;;;;;;;;;;5078877;28;20499;-87
2021/12/13 13:40:32;;;;;;;8.93;4.70;;;;;;;;;;5060303;28;20028;-86
2021/12/13 13:42:57;;;;;;;7.50;4.40;;;;;;;;;;5079085;28;20024;-86
2021/12/13 13:45:22;;;;;;;6.72;3.92;;;;;;;;;;5078732;28;20058;-85
2021/12/13 13:47:48;;;;;;;7.03;4.10;;;;;;;;;;5081403;28;20049;-86
2021/12/13 13:50:13;;;;;;;6.82;4.40;;;;;;;;;;5065154;28;20036;-86
2021/12/13 13:52:38;;;;;;;7.88;4.40;;;;;;;;;;5065260;28;20044;-85
2021/12/13 13:55:04;;;;;;;7.18;4.25;;;;;;;;;;5083455;28;20044;-85
2021/12/13 13:57:29;;;;;;;4.88;2.90;;;;;;;;;;5083477;28;20464;-86
2021/12/13 13:59:54;;;;;;;3.95;2.88;;;;;;;;;;5082953;28;20127;-86
2021/12/13 14:02:20;;;;;;;4.70;3.60;;;;;;;;;;5081501;28;20047;-86
2021/12/13 14:04:47;;;;;;;3.83;2.28;;;;;;;;;;5064057;28;20039;-86
2021/12/13 14:07:12;;;;;;;4.07;2.70;;;;;;;;;;5081191;28;20040;-86
2021/12/13 14:09:38;;;;;;;7.53;4.38;;;;;;;;;;5080951;28;20040;-85
2021/12/13 14:12:03;;;;;;;7.35;4.05;;;;;;;;;;5062696;28;20036;-86
2021/12/13 14:14:28;;;;;;;5.00;3.15;;;;;;;;;;5081940;28;20111;-86
2021/12/13 14:16:54;;;;;;;6.15;3.75;;;;;;;;;;5063674;28;20094;-86
2021/12/13 14:19:19;;;;;;;6.03;3.88;;;;;;;;;;5065560;28;20048;-86
2021/12/13 14:21:45;;;;;;;4.97;3.40;;;;;;;;;;5061688;28;20067;-86
2021/12/13 14:24:10;;;;;;;4.30;3.22;;;;;;;;;;5061596;28;20024;-86
2021/12/13 14:26:36;;;;;;;8.00;3.60;;;;;;;;;;5071023;28;20068;-87
2021/12/13 14:29:01;;;;;;;6.03;4.07;;;;;;;;;;5081899;28;20112;-86
2021/12/13 14:31:26;;;;;;;7.80;4.20;;;;;;;;;;5082068;28;20060;-86
2021/12/13 14:33:52;;;;;;;7.40;4.68;;;;;;;;;;5048254;28;20028;-86
2021/12/13 14:36:17;;;;;;;6.28;4.00;;;;;;;;;;5081595;28;20051;-85
2021/12/13 14:38:42;;;;;;;5.30;3.50;;;;;;;;;;5045702;28;20119;-86